Airfield :
LOGIN :

Register | Disclaimer

   EN    FR    IT 

 










Legend :    VFR   Marginal VFR   IFR   Intensive IFR   Very Intensive IFR
Visi :
Ceiling :
>= 8 km
>= 3000ft
5 to 8 km
1000 to 3000 ft
1500m to 5 km
500 to 1000 ft
800 to 1500m
200 to 500 ft
< 800m
< 200 ft
Symbols :   Thunderstorms  Fog  Heavy snow  Heavy precipitations  Wind > 20 kt
SIGMETs :     Misc.  Thunderstorms  Icing  Turbulence  Mountain Waves  Volcanic Ashes






- Airport Elevation : 3006 ft
- IATA code : LEN


LELN - Leon

CURRENT METAR :
  • 170700Z 35005KT CAVOK M02/M02 Q1032

EXPIRED METARs :
  • 170630Z AUTO 35003KT CAVOK M05/M05 Q1032
  • 170600Z AUTO 31002KT CAVOK M05/M06 Q1031
  • 170530Z AUTO 30003KT CAVOK M04/M04 Q1032
  • 170500Z AUTO 33003KT CAVOK M03/M03 Q1031
  • 170430Z AUTO 34004KT 300V010 CAVOK M03/M04 Q1032

TAF TAF LELN
Valid from the 17 at 03:00 until the 18 at 03:00 UTC


170200Z 1703/1803 VRB03KT CAVOK TX07/1715Z TNM08/1707Z



MET'MAP, your aeronautical weather chart ! - Copyright ORBIFLY December 2007 - Disclaimer

ORBIFLY MET'MAP TEAM :

Programming & Development : Alexandra Zaïnal
Concept & original design : Baudouin d'Aumeries
Assistance for programming : Marc-Olivier Méhu
Technical & hardware support : Manuel Goepfert

Contact : metmap@orbifly.com




SOURCES & CREDITS :

   NOAA